| time (UTC) | temp C | wind direction | speed KPH | gust KPH | rain 1hr cm | rain 24hr cm | rain mn cm | humidity % | barometer mb |
| 20260510175506 | 23 | 236 | 6.4 | 16.1 | 0.00 | 0.03 | 0.03 | 58 | 614.6 |
| 20260510174505 | 24 | 347 | 6.4 | 30.6 | 0.00 | 0.03 | 0.03 | 56 | 614.6 |
| 20260510173506 | 24 | 260 | 4.8 | 17.7 | 0.00 | 0.03 | 0.03 | 58 | 614.6 |
| 20260510172506 | 23 | 278 | 3.2 | 14.5 | 0.00 | 0.03 | 0.03 | 57 | 614.6 |
| 20260510171231 | 23 | 234 | 1.6 | 22.5 | 0.00 | 0.03 | 0.03 | 56 | 614.6 |
| 20260510170230 | 24 | 233 | 3.2 | 12.9 | 0.00 | 0.03 | 0.03 | 59 | 614.6 |
| 20260510165231 | 23 | 242 | 12.9 | 25.7 | 0.00 | 0.03 | 0.03 | 60 | 614.6 |
| 20260510164230 | 23 | 210 | 14.5 | 35.4 | 0.00 | 0.03 | 0.03 | 58 | 614.6 |
| 20260510163231 | 23 | 214 | 1.6 | 16.1 | 0.00 | 0.03 | 0.03 | 58 | 614.6 |
| 20260510162230 | 23 | 259 | 3.2 | 19.3 | 0.00 | 0.03 | 0.03 | 59 | 593.2 |
| 20260510161230 | 23 | 0 | 0.0 | 20.9 | 0.00 | 0.03 | 0.03 | 60 | 593.2 |
| 20260510160231 | 22 | 225 | 12.9 | 30.6 | 0.00 | 0.03 | 0.03 | 58 | 593.2 |
| 20260510154841 | 22 | 218 | 8.0 | 19.3 | 0.00 | 0.03 | 0.03 | 59 | 593.2 |
| 20260510153840 | 22 | 224 | 6.4 | 24.1 | 0.00 | 0.03 | 0.03 | 60 | 593.2 |
| 20260510152841 | 22 | 214 | 4.8 | 32.2 | 0.00 | 0.03 | 0.03 | 62 | 593.2 |
| 20260510151840 | 22 | 0 | 0.0 | 19.3 | 0.00 | 0.03 | 0.03 | 64 | 593.2 |
| 20260510150438 | 21 | 227 | 16.1 | 33.8 | 0.00 | 0.03 | 0.03 | 65 | 593.2 |
| 20260510145439 | 21 | 256 | 8.0 | 33.8 | 0.00 | 0.03 | 0.03 | 65 | 593.2 |
| 20260510144438 | 21 | 258 | 4.8 | 19.3 | 0.00 | 0.03 | 0.03 | 65 | 593.2 |
| 20260510143439 | 21 | 0 | 0.0 | 11.3 | 0.00 | 0.03 | 0.03 | 68 | 593.2 |
| 20260510142040 | 20 | 215 | 1.6 | 11.3 | 0.00 | 0.03 | 0.03 | 67 | 593.2 |
| 20260510141040 | 20 | 244 | 3.2 | 6.4 | 0.00 | 0.03 | 0.03 | 71 | 593.2 |
| 20260510140040 | 19 | 223 | 3.2 | 9.7 | 0.00 | 0.03 | 0.03 | 74 | 593.2 |
| 20260510135039 | 19 | 243 | 1.6 | 6.4 | 0.00 | 0.03 | 0.03 | 77 | 593.2 |
| 20260510133623 | 18 | 279 | 1.6 | 6.4 | 0.00 | 0.03 | 0.03 | 79 | 593.2 |
| 20260510132623 | 17 | 0 | 0.0 | 3.2 | 0.00 | 0.03 | 0.03 | 83 | 593.2 |
| 20260510131623 | 17 | 0 | 0.0 | 3.2 | 0.00 | 0.03 | 0.03 | 83 | 593.2 |
| 20260510130623 | 16 | 0 | 0.0 | 1.6 | 0.00 | 0.03 | 0.03 | 86 | 593.2 |
| 20260510125228 | 15 | 0 | 0.0 | 3.2 | 0.00 | 0.03 | 0.03 | 89 | 593.2 |
| 20260510124228 | 15 | 0 | 0.0 | 0.0 | 0.00 | 0.03 | 0.03 | 91 | 593.2 |
| 20260510123230 | 13 | 0 | 0.0 | 0.0 | 0.00 | 0.03 | 0.03 | 93 | 593.2 |
| 20260510122228 | 13 | 0 | 0.0 | 0.0 | 0.00 | 0.03 | 0.03 | 94 | 593.2 |
| 20260510120813 | 12 | 0 | 0.0 | 0.0 | 0.00 | 0.03 | 0.03 | 96 | 593.2 |
| 20260510115813 | 12 | 0 | 0.0 | 0.0 | 0.00 | 0.03 | 0.03 | 96 | 593.2 |
| 20260510114813 | 11 | 0 | 0.0 | 0.0 | 0.00 | 0.03 | 0.03 | 96 | 593.2 |
| 20260510113813 | 11 | 0 | 0.0 | 1.6 | 0.00 | 0.03 | 0.03 | 96 | 593.2 |
| 20260510112406 | 10 | 0 | 0.0 | 0.0 | 0.00 | 0.03 | 0.03 | 96 | 593.2 |
| 20260510111406 | 10 | 0 | 0.0 | 0.0 | 0.00 | 0.03 | 0.03 | 96 | 822.5 |
| 20260510110406 | 10 | 0 | 0.0 | 4.8 | 0.00 | 0.03 | 0.03 | 96 | 822.5 |
| 20260510105406 | 10 | 0 | 0.0 | 1.6 | 0.00 | 0.03 | 0.03 | 96 | 822.5 |
| 20260510104001 | 10 | 0 | 0.0 | 0.0 | 0.03 | 0.03 | 0.03 | 96 | 822.5 |
| 20260510103001 | 10 | 0 | 0.0 | 0.0 | 0.03 | 0.03 | 0.03 | 96 | 822.5 |
| 20260510102001 | 10 | 0 | 0.0 | 0.0 | 0.03 | 0.03 | 0.03 | 96 | 822.5 |
| 20260510101001 | 10 | 0 | 0.0 | 1.6 | 0.03 | 0.03 | 0.03 | 95 | 822.5 |
| 20260510095603 | 10 | 0 | 0.0 | 1.6 | 0.03 | 0.03 | 0.03 | 95 | 822.5 |
| 20260510094602 | 10 | 0 | 0.0 | 0.0 | 0.03 | 0.03 | 0.03 | 95 | 822.5 |
| 20260510093603 | 10 | 0 | 0.0 | 0.0 | 0.00 | 0.00 | 0.00 | 95 | 822.5 |
| 20260510092602 | 10 | 0 | 0.0 | 0.0 | 0.00 | 0.00 | 0.00 | 95 | 822.5 |
| 20260510091147 | 10 | 0 | 0.0 | 0.0 | 0.00 | 0.00 | 0.00 | 95 | 822.5 |
| 20260510090147 | 10 | 0 | 0.0 | 0.0 | 0.00 | 0.00 | 0.00 | 95 | 822.5 |
| 20260510085147 | 10 | 0 | 0.0 | 0.0 | 0.00 | 0.00 | 0.00 | 95 | 822.5 |
| 20260510084148 | 10 | 0 | 0.0 | 8.0 | 0.00 | 0.00 | 0.00 | 95 | 822.5 |
| 20260510082358 | 10 | 91 | 1.6 | 12.9 | 0.00 | 0.00 | 0.00 | 95 | 822.5 |
| 20260510081359 | 9 | 326 | 4.8 | 11.3 | 0.00 | 0.00 | 0.00 | 94 | 822.5 |
| 20260510080358 | 10 | 0 | 0.0 | 0.0 | 0.00 | 0.00 | 0.00 | 94 | 822.5 |
| 20260510075359 | 10 | 0 | 0.0 | 0.0 | 0.00 | 0.00 | 0.00 | 94 | 822.5 |
| 20260510074017 | 10 | 0 | 0.0 | 1.6 | 0.00 | 0.00 | 0.00 | 94 | 822.5 |
| 20260510073018 | 10 | 0 | 0.0 | 0.0 | 0.00 | 0.00 | 0.00 | 94 | 822.5 |
| 20260510072017 | 10 | 0 | 0.0 | 0.0 | 0.00 | 0.00 | 0.00 | 94 | 822.5 |
| 20260510071018 | 10 | 0 | 0.0 | 0.0 | 0.00 | 0.00 | 0.00 | 94 | 822.5 |
| 20260510065616 | 10 | 0 | 0.0 | 0.0 | 0.00 | 0.00 | 0.00 | 93 | 822.5 |
| 20260510064617 | 10 | 0 | 0.0 | 0.0 | 0.00 | 0.00 | 0.00 | 93 | 822.5 |
| 20260510063616 | 10 | 0 | 0.0 | 0.0 | 0.00 | 0.00 | 0.00 | 93 | 822.5 |
| 20260510062617 | 10 | 0 | 0.0 | 0.0 | 0.00 | 0.00 | 0.00 | 93 | 822.5 |
| 20260510061213 | 10 | 0 | 0.0 | 0.0 | 0.00 | 0.00 | 0.00 | 93 | 822.5 |
| 20260510060214 | 10 | 0 | 0.0 | 0.0 | 0.00 | 0.00 | 0.00 | 93 | 822.5 |
| 20260510055213 | 10 | 0 | 0.0 | 0.0 | 0.00 | 0.00 | 0.00 | 92 | 822.5 |
| 20260510054214 | 10 | 0 | 0.0 | 0.0 | 0.00 | 0.00 | 0.00 | 92 | 822.5 |
| 20260510052812 | 10 | 0 | 0.0 | 0.0 | 0.00 | 0.00 | 0.00 | 92 | 822.5 |
| 20260510051813 | 10 | 0 | 0.0 | 0.0 | 0.00 | 0.00 | 0.00 | 92 | 822.5 |
| 20260510050812 | 10 | 0 | 0.0 | 0.0 | 0.00 | 0.00 | 0.00 | 92 | 822.5 |
| 20260510045813 | 10 | 0 | 0.0 | 0.0 | 0.00 | 0.00 | 0.00 | 92 | 822.5 |
| 20260510044406 | 10 | 0 | 0.0 | 0.0 | 0.00 | 0.00 | 0.00 | 92 | 822.5 |
| 20260510043406 | 10 | 0 | 0.0 | 0.0 | 0.00 | 0.00 | 0.00 | 92 | 822.5 |
| 20260510042405 | 11 | 0 | 0.0 | 0.0 | 0.00 | 0.00 | 0.00 | 92 | 822.5 |
| 20260510041406 | 11 | 0 | 0.0 | 0.0 | 0.00 | 0.00 | 0.00 | 91 | 822.5 |
| 20260510035959 | 11 | 0 | 0.0 | 0.0 | 0.00 | 0.00 | 0.00 | 91 | 822.5 |
| 20260510034959 | 11 | 0 | 0.0 | 0.0 | 0.00 | 0.00 | 0.00 | 91 | 822.5 |
| 20260510034001 | 11 | 0 | 0.0 | 0.0 | 0.00 | 0.00 | 0.00 | 91 | 822.5 |
| 20260510032959 | 11 | 0 | 0.0 | 0.0 | 0.00 | 0.00 | 0.00 | 90 | 822.5 |
| 20260510031556 | 11 | 0 | 0.0 | 0.0 | 0.00 | 0.00 | 0.00 | 90 | 822.5 |
| 20260510030556 | 11 | 0 | 0.0 | 0.0 | 0.00 | 0.00 | 0.00 | 90 | 822.5 |
| 20260510025556 | 11 | 0 | 0.0 | 0.0 | 0.00 | 0.00 | 0.00 | 89 | 822.5 |
| 20260510024556 | 11 | 0 | 0.0 | 0.0 | 0.00 | 0.00 | 0.00 | 89 | 822.5 |
| 20260510023158 | 11 | 0 | 0.0 | 0.0 | 0.00 | 0.00 | 0.00 | 89 | 822.5 |
| 20260510022157 | 12 | 0 | 0.0 | 0.0 | 0.00 | 0.00 | 0.00 | 89 | 822.5 |
| 20260510021158 | 12 | 0 | 0.0 | 0.0 | 0.00 | 0.00 | 0.00 | 89 | 822.5 |
| 20260510020157 | 12 | 0 | 0.0 | 0.0 | 0.00 | 0.00 | 0.00 | 89 | 822.5 |
| 20260510013808 | 12 | 0 | 0.0 | 0.0 | 0.00 | 0.00 | 0.00 | 88 | 822.5 |
| 20260510012808 | 12 | 0 | 0.0 | 0.0 | 0.00 | 0.00 | 0.00 | 87 | 822.5 |
| 20260510011809 | 13 | 0 | 0.0 | 0.0 | 0.00 | 0.00 | 0.00 | 87 | 822.5 |
| 20260510010419 | 13 | 0 | 0.0 | 0.0 | 0.00 | 0.00 | 0.00 | 86 | 822.5 |
| 20260510005419 | 13 | 0 | 0.0 | 0.0 | 0.00 | 0.00 | 0.00 | 85 | 822.5 |
| 20260510004420 | 13 | 0 | 0.0 | 0.0 | 0.00 | 0.00 | 0.00 | 85 | 822.5 |
| 20260510003419 | 14 | 0 | 0.0 | 0.0 | 0.00 | 0.00 | 0.00 | 84 | 822.5 |
| 20260510002040 | 14 | 0 | 0.0 | 0.0 | 0.00 | 0.00 | 0.00 | 84 | 822.5 |
| 20260510001041 | 14 | 0 | 0.0 | 0.0 | 0.00 | 0.00 | 0.00 | 83 | 822.5 |
| 20260510000040 | 15 | 0 | 0.0 | 1.6 | 0.00 | 0.00 | 0.00 | 83 | 822.5 |
| 20260509235040 | 15 | 0 | 0.0 | 0.0 | 0.00 | 0.00 | 0.00 | 82 | 822.5 |
| 20260509233701 | 15 | 0 | 0.0 | 3.2 | 0.00 | 0.00 | 0.00 | 82 | 822.5 |
| 20260509232702 | 15 | 94 | 1.6 | 4.8 | 0.00 | 0.00 | 0.00 | 81 | 822.5 |
| 20260509231701 | 16 | 0 | 0.0 | 3.2 | 0.00 | 0.00 | 0.00 | 81 | 822.5 |
| 20260509230702 | 16 | 0 | 0.0 | 3.2 | 0.00 | 0.00 | 0.00 | 81 | 822.5 |
| 20260509225327 | 16 | 0 | 0.0 | 1.6 | 0.00 | 0.00 | 0.00 | 82 | 822.5 |
| 20260509224326 | 16 | 0 | 0.0 | 3.2 | 0.00 | 0.00 | 0.00 | 81 | 822.5 |
| 20260509223327 | 15 | 0 | 0.0 | 1.6 | 0.00 | 0.00 | 0.00 | 81 | 822.5 |
| 20260509222327 | 15 | 0 | 0.0 | 1.6 | 0.00 | 0.00 | 0.00 | 82 | 822.5 |
| 20260509220943 | 15 | 0 | 0.0 | 3.2 | 0.00 | 0.00 | 0.00 | 82 | 822.5 |
| 20260509215944 | 15 | 0 | 0.0 | 1.6 | 0.00 | 0.00 | 0.00 | 82 | 822.5 |
| 20260509214944 | 15 | 0 | 0.0 | 6.4 | 0.00 | 0.00 | 0.00 | 83 | 822.5 |
| 20260509213944 | 15 | 0 | 0.0 | 4.8 | 0.00 | 0.00 | 0.00 | 82 | 822.5 |
| 20260509212555 | 15 | 0 | 0.0 | 4.8 | 0.00 | 0.00 | 0.00 | 83 | 822.5 |
| 20260509211555 | 15 | 0 | 0.0 | 3.2 | 0.00 | 0.00 | 0.00 | 83 | 822.5 |
| 20260509210555 | 15 | 0 | 0.0 | 6.4 | 0.00 | 0.00 | 0.00 | 83 | 822.5 |
| 20260509205555 | 15 | 0 | 0.0 | 6.4 | 0.00 | 0.00 | 0.00 | 83 | 822.5 |
| 20260509204204 | 15 | 0 | 0.0 | 0.0 | 0.00 | 0.00 | 0.00 | 83 | 822.5 |
| 20260509203204 | 15 | 0 | 0.0 | 1.6 | 0.00 | 0.00 | 0.00 | 81 | 822.5 |
| 20260509201204 | 16 | 0 | 0.0 | 0.0 | 0.00 | 0.00 | 0.00 | 77 | 822.5 |
| 20260509195809 | 15 | 0 | 0.0 | 8.0 | 0.00 | 0.00 | 0.00 | 77 | 822.5 |
| 20260509193809 | 15 | 305 | 4.8 | 14.5 | 0.00 | 0.00 | 0.00 | 80 | 822.5 |
| 20260509192809 | 14 | 0 | 0.0 | 12.9 | 0.00 | 0.00 | 0.00 | 81 | 822.5 |
| 20260509191412 | 14 | 326 | 3.2 | 12.9 | 0.00 | 0.00 | 0.00 | 81 | 822.5 |
| 20260509190412 | 14 | 327 | 3.2 | 14.5 | 0.00 | 0.00 | 0.00 | 81 | 822.5 |
| 20260509185412 | 13 | 300 | 3.2 | 12.9 | 0.00 | 0.00 | 0.00 | 82 | 822.5 |
| 20260509184412 | 13 | 356 | 3.2 | 12.9 | 0.00 | 0.00 | 0.00 | 81 | 822.5 |
| 20260509183003 | 14 | 338 | 4.8 | 12.9 | 0.00 | 0.00 | 0.00 | 78 | 822.5 |
| 20260509182003 | 14 | 306 | 6.4 | 12.9 | 0.00 | 0.00 | 0.00 | 77 | 822.5 |
| 20260509181003 | 15 | 348 | 4.8 | 14.5 | 0.00 | 0.00 | 0.00 | 79 | 822.5 |